createdAt,value
2023-03-12T00:02:06.845Z,16.98
2023-03-12T00:05:00.866Z,17.65
2023-03-12T00:07:47.852Z,20.30
2023-03-12T00:10:27.849Z,17.75
2023-03-12T00:13:21.845Z,18.15
2023-03-12T00:16:17.873Z,16.95
2023-03-12T00:18:53.955Z,20.80
2023-03-12T00:21:40.853Z,18.50
2023-03-12T00:24:14.932Z,18.95
2023-03-12T00:27:01.861Z,17.67
2023-03-12T00:29:34.937Z,17.67
2023-03-12T00:32:21.899Z,19.42
2023-03-12T00:34:59.030Z,18.50
2023-03-12T00:37:45.852Z,15.55
2023-03-12T00:40:19.949Z,16.67
2023-03-12T00:43:06.836Z,18.13
2023-03-12T00:45:39.966Z,18.13
2023-03-12T00:48:33.844Z,17.77
2023-03-12T00:51:27.880Z,17.77
2023-03-12T00:54:15.096Z,17.00
2023-03-12T00:56:48.010Z,16.98
2023-03-12T00:59:34.853Z,17.20
2023-03-12T01:02:07.937Z,15.25
2023-03-12T01:04:54.896Z,17.48
2023-03-12T01:07:34.941Z,16.50
2023-03-12T01:10:16.847Z,16.17
2023-03-12T01:13:03.869Z,18.08
2023-03-12T01:15:37.236Z,18.58
2023-03-12T01:18:23.898Z,16.92
2023-03-12T01:20:57.366Z,16.48
2023-03-12T01:23:43.879Z,16.60
2023-03-12T01:26:17.717Z,16.48
2023-03-12T01:29:04.853Z,17.55
2023-03-12T01:31:38.341Z,16.35
2023-03-12T01:34:25.892Z,17.13
2023-03-12T01:36:59.439Z,17.92
2023-03-12T01:39:45.858Z,17.33
2023-03-12T01:42:19.301Z,17.50
2023-03-12T01:45:15.884Z,16.95
2023-03-12T01:47:55.877Z,16.45
2023-03-12T01:50:42.885Z,15.82
2023-03-12T01:53:17.035Z,15.88
2023-03-12T01:56:04.929Z,17.83
2023-03-12T01:58:41.044Z,16.17
2023-03-12T02:01:30.926Z,18.20
2023-03-12T02:04:10.927Z,19.05
2023-03-12T02:07:11.865Z,17.42
2023-03-12T02:09:48.730Z,16.63
2023-03-12T02:12:35.881Z,16.60
2023-03-12T02:15:16.861Z,16.73
2023-03-12T02:17:56.999Z,14.93
2023-03-12T02:20:54.873Z,17.05
2023-03-12T02:23:53.983Z,15.73
2023-03-12T02:26:35.875Z,15.77
2023-03-12T02:29:23.889Z,17.80
2023-03-12T02:32:00.888Z,18.83
2023-03-12T02:34:47.881Z,18.60
2023-03-12T02:37:21.308Z,16.67
2023-03-12T02:40:31.886Z,17.67
2023-03-12T02:43:07.674Z,15.93
2023-03-12T02:45:53.897Z,16.60
2023-03-12T02:48:27.307Z,16.42
2023-03-12T02:51:13.930Z,18.13
2023-03-12T02:53:47.313Z,17.95
2023-03-12T02:56:38.896Z,18.73
2023-03-12T02:59:20.897Z,15.63
2023-03-12T03:02:03.462Z,16.70
2023-03-12T03:04:42.888Z,15.57
2023-03-12T03:07:22.976Z,16.40
2023-03-12T03:10:02.913Z,17.30
2023-03-12T03:12:44.384Z,15.82
2023-03-12T03:15:23.889Z,16.33
2023-03-12T03:18:10.905Z,18.17
2023-03-12T03:20:51.911Z,18.13
2023-03-12T03:23:38.912Z,17.17
2023-03-12T03:26:18.887Z,15.82
2023-03-12T03:29:05.909Z,15.38
2023-03-12T03:31:45.910Z,16.83
2023-03-12T03:34:26.014Z,16.77
2023-03-12T03:37:05.861Z,17.52
2023-03-12T03:39:45.984Z,15.48
2023-03-12T03:42:25.906Z,16.88
2023-03-12T03:45:12.903Z,16.88
2023-03-12T03:47:52.942Z,17.30
2023-03-12T03:50:32.985Z,16.20
2023-03-12T03:53:15.898Z,16.20
2023-03-12T03:56:02.919Z,16.85
2023-03-12T03:58:36.332Z,15.50
2023-03-12T04:01:22.925Z,16.77
2023-03-12T04:03:56.240Z,15.88
2023-03-12T04:06:42.918Z,16.85
2023-03-12T04:09:18.134Z,16.42
2023-03-12T04:12:04.908Z,16.02
2023-03-12T04:14:42.459Z,15.27
2023-03-12T04:17:28.897Z,16.17
2023-03-12T04:20:08.924Z,15.82
2023-03-12T04:22:49.004Z,15.38
2023-03-12T04:25:28.913Z,13.75
2023-03-12T04:28:08.927Z,15.98
2023-03-12T04:30:48.989Z,15.73
2023-03-12T04:33:22.425Z,15.23
2023-03-12T04:36:08.994Z,16.42
2023-03-12T04:38:42.317Z,15.50
2023-03-12T04:41:29.955Z,14.82
2023-03-12T04:44:04.674Z,15.85
2023-03-12T04:46:51.028Z,15.45
2023-03-12T04:49:30.991Z,16.02
2023-03-12T04:52:17.963Z,16.27
2023-03-12T04:54:51.311Z,17.42
2023-03-12T04:57:37.954Z,19.98
2023-03-12T05:00:19.943Z,16.15
2023-03-12T05:03:00.082Z,16.70
2023-03-12T05:05:39.927Z,16.00
2023-03-12T05:08:26.941Z,18.58
2023-03-12T05:11:06.935Z,16.80
2023-03-12T05:13:47.071Z,15.90
2023-03-12T05:16:27.020Z,16.58
2023-03-12T05:19:07.061Z,16.48
2023-03-12T05:21:48.931Z,17.30
2023-03-12T05:24:35.966Z,17.73
2023-03-12T05:27:15.934Z,25.33
2023-03-12T05:29:56.037Z,16.17
2023-03-12T05:32:36.029Z,16.77
2023-03-12T05:35:16.044Z,16.90
2023-03-12T05:37:55.999Z,17.33
2023-03-12T05:40:43.988Z,19.15
2023-03-12T05:43:23.941Z,18.70
2023-03-12T05:46:16.043Z,17.95
2023-03-12T05:48:55.949Z,17.45
2023-03-12T05:51:42.958Z,16.98
2023-03-12T05:54:17.597Z,17.90
2023-03-12T05:57:03.989Z,17.05
2023-03-12T05:59:37.308Z,16.92
2023-03-12T06:02:23.965Z,16.95
2023-03-12T06:04:58.480Z,18.55
2023-03-12T06:07:45.005Z,20.98
2023-03-12T06:10:19.361Z,16.80
2023-03-12T06:13:05.973Z,17.42
2023-03-12T06:15:39.355Z,16.38
2023-03-12T06:18:25.974Z,14.98
2023-03-12T06:21:14.231Z,15.70
2023-03-12T06:24:08.002Z,15.73
2023-03-12T06:26:54.972Z,15.40
2023-03-12T06:29:28.118Z,20.45
2023-03-12T06:32:15.129Z,15.60
2023-03-12T06:34:54.963Z,16.55
2023-03-12T06:37:41.965Z,15.20
2023-03-12T06:40:22.956Z,24.92
2023-03-12T06:43:09.981Z,16.50
2023-03-12T06:45:43.064Z,15.77
2023-03-12T06:48:37.969Z,16.25
2023-03-12T06:51:24.983Z,16.52
2023-03-12T06:53:58.069Z,15.68
2023-03-12T06:56:44.954Z,14.60
2023-03-12T06:59:21.844Z,16.23
2023-03-12T07:02:09.014Z,18.45
2023-03-12T07:04:42.089Z,15.32
2023-03-12T07:07:28.968Z,42.15
2023-03-12T07:10:08.991Z,17.15
2023-03-12T07:12:55.978Z,16.98
2023-03-12T07:15:30.106Z,19.60
2023-03-12T07:18:17.997Z,16.85
2023-03-12T07:20:51.144Z,16.20
2023-03-12T07:23:37.977Z,15.00
2023-03-12T07:26:18.972Z,15.70
2023-03-12T07:29:05.993Z,14.32
2023-03-12T07:31:39.205Z,14.73
2023-03-12T07:34:26.061Z,14.48
2023-03-12T07:37:00.068Z,14.10
2023-03-12T07:39:47.011Z,13.88
2023-03-12T07:42:20.107Z,15.43
2023-03-12T07:45:07.030Z,15.25
2023-03-12T07:47:40.185Z,15.05
2023-03-12T07:50:27.030Z,14.05
2023-03-12T07:53:06.984Z,14.90
2023-03-12T07:56:01.100Z,16.05
2023-03-12T07:58:48.030Z,12.30
2023-03-12T08:01:28.115Z,13.93
2023-03-12T08:04:22.024Z,16.23
2023-03-12T08:07:09.458Z,16.45
2023-03-12T08:09:43.269Z,15.30
2023-03-12T08:12:30.048Z,13.98
2023-03-12T08:15:10.010Z,16.08
2023-03-12T08:18:03.982Z,14.35
2023-03-12T08:20:51.001Z,15.75
2023-03-12T08:23:30.990Z,15.07
2023-03-12T08:26:25.006Z,15.70
2023-03-12T08:29:12.018Z,15.35
2023-03-12T08:32:03.403Z,15.88
2023-03-12T08:34:51.022Z,14.55
2023-03-12T08:37:31.002Z,15.10
2023-03-12T08:40:22.001Z,15.32
2023-03-12T08:43:02.016Z,16.02
2023-03-12T08:45:57.026Z,17.88
2023-03-12T08:48:51.007Z,19.95
2023-03-12T08:51:45.014Z,20.00
2023-03-12T08:54:32.033Z,17.35
2023-03-12T08:57:12.019Z,17.63
2023-03-12T08:59:59.053Z,18.25
2023-03-12T09:02:34.085Z,18.95
2023-03-12T09:05:21.039Z,18.55
2023-03-12T09:08:02.053Z,17.20
2023-03-12T09:10:55.044Z,19.95
2023-03-12T09:13:45.318Z,18.88
2023-03-12T09:16:36.048Z,21.08
2023-03-12T09:19:09.186Z,21.15
2023-03-12T09:21:56.020Z,19.42
2023-03-12T09:24:29.128Z,19.88
2023-03-12T09:27:16.043Z,17.20
2023-03-12T09:29:59.301Z,17.85
2023-03-12T09:32:47.141Z,20.20
2023-03-12T09:35:22.173Z,19.67
2023-03-12T09:38:10.016Z,20.00
2023-03-12T09:40:44.140Z,19.95
2023-03-12T09:44:10.002Z,18.77
2023-03-12T09:47:01.106Z,19.95
2023-03-12T09:50:04.020Z,18.77
2023-03-12T09:53:34.042Z,20.63
2023-03-12T09:56:32.043Z,16.30
2023-03-12T09:59:26.036Z,16.83
2023-03-12T10:02:39.024Z,16.95
2023-03-12T10:05:29.060Z,20.27
2023-03-12T10:08:24.425Z,19.73
2023-03-12T10:11:15.044Z,18.50
2023-03-12T10:14:07.142Z,17.45
2023-03-12T10:17:24.021Z,16.70
2023-03-12T10:20:17.054Z,18.23
2023-03-12T10:23:22.032Z,19.25
2023-03-12T10:26:23.044Z,18.27
2023-03-12T10:29:00.259Z,18.35
2023-03-12T10:32:02.088Z,17.33
2023-03-12T10:34:59.051Z,18.58
2023-03-12T10:37:52.065Z,16.55
2023-03-12T10:40:31.228Z,18.38
2023-03-12T10:43:18.068Z,16.83
2023-03-12T10:46:20.063Z,16.55
2023-03-12T10:49:37.052Z,14.10
2023-03-12T10:52:29.066Z,14.00
2023-03-12T10:59:05.079Z,15.13
2023-03-12T11:01:56.094Z,15.68
2023-03-12T11:04:37.158Z,15.13
2023-03-12T11:07:39.061Z,15.90
2023-03-12T11:10:22.110Z,16.08
2023-03-12T11:13:19.057Z,15.27
2023-03-12T11:16:24.180Z,15.52
2023-03-12T11:19:13.061Z,16.33
2023-03-12T11:22:14.062Z,16.08
2023-03-12T11:25:13.070Z,16.15
2023-03-12T11:27:56.237Z,15.00
2023-03-12T11:30:46.111Z,14.05
2023-03-12T11:33:20.171Z,17.42
2023-03-12T11:36:25.081Z,16.25
2023-03-12T11:39:10.219Z,14.70
2023-03-12T11:42:00.079Z,14.88
2023-03-12T11:44:58.366Z,13.90
2023-03-12T11:47:57.065Z,16.15
2023-03-12T11:50:43.095Z,15.27
2023-03-12T11:53:51.075Z,14.15
2023-03-12T11:56:40.267Z,15.18
2023-03-12T11:59:30.279Z,14.13
2023-03-12T12:02:20.487Z,13.38
2023-03-12T12:05:13.084Z,14.05
2023-03-12T12:08:04.199Z,14.68
2023-03-12T12:11:15.080Z,14.63
2023-03-12T12:13:59.162Z,14.55
2023-03-12T12:17:08.153Z,15.07
2023-03-12T12:19:59.173Z,13.82
2023-03-12T12:23:09.095Z,13.85
2023-03-12T12:25:53.201Z,13.52
2023-03-12T12:28:49.097Z,14.15
2023-03-12T12:31:52.197Z,14.88
2023-03-12T12:35:07.112Z,13.52
2023-03-12T12:38:05.235Z,12.98
2023-03-12T12:40:58.101Z,14.50
2023-03-12T12:43:46.097Z,15.25
2023-03-12T12:46:43.102Z,14.57
2023-03-12T12:49:49.105Z,14.43
2023-03-12T12:52:43.075Z,14.15
2023-03-12T12:55:39.102Z,13.98
2023-03-12T12:58:26.201Z,13.13
2023-03-12T13:01:14.128Z,12.90
2023-03-12T13:03:52.234Z,12.40
2023-03-12T13:07:07.124Z,12.65
2023-03-12T13:09:45.213Z,13.57
2023-03-12T13:12:32.155Z,12.70
2023-03-12T13:15:14.120Z,12.38
2023-03-12T13:18:32.125Z,13.60
2023-03-12T13:21:28.120Z,13.05
2023-03-12T13:24:29.217Z,13.52
2023-03-12T13:27:32.131Z,13.57
2023-03-12T13:30:05.274Z,12.75
2023-03-12T13:32:55.141Z,11.32
2023-03-12T13:35:28.260Z,12.05
2023-03-12T13:38:24.113Z,13.50
2023-03-12T13:41:22.139Z,11.82
2023-03-12T13:44:34.137Z,12.80
2023-03-12T13:47:26.224Z,12.10
2023-03-12T13:50:20.118Z,10.48
2023-03-12T13:53:04.172Z,10.55
2023-03-12T13:55:56.137Z,12.32
2023-03-12T13:58:29.256Z,11.20
2023-03-12T14:01:25.209Z,12.98
2023-03-12T14:04:07.232Z,13.18
2023-03-12T14:07:33.139Z,12.48
2023-03-12T14:10:16.146Z,11.63
2023-03-12T14:13:28.135Z,11.27
2023-03-12T14:16:33.207Z,12.63
2023-03-12T14:19:14.155Z,12.98
2023-03-12T14:22:13.125Z,12.05
2023-03-12T14:25:11.160Z,12.82
2023-03-12T14:27:58.171Z,12.00
2023-03-12T14:30:48.215Z,11.73
2023-03-12T14:33:47.145Z,12.55
2023-03-12T14:36:28.265Z,13.02
2023-03-12T14:39:27.152Z,11.32
2023-03-12T14:42:15.153Z,14.15
2023-03-12T14:45:08.170Z,11.30
2023-03-12T14:47:59.169Z,11.25
2023-03-12T14:50:55.257Z,12.73
2023-03-12T14:53:46.154Z,11.43
2023-03-12T14:56:47.152Z,12.75
2023-03-12T14:59:47.170Z,11.35
2023-03-12T15:02:37.160Z,12.40
2023-03-12T15:05:11.347Z,10.20
2023-03-12T15:08:09.151Z,11.00
2023-03-12T15:10:44.251Z,10.88
2023-03-12T15:13:34.157Z,11.50
2023-03-12T15:16:07.340Z,10.63
2023-03-12T15:18:56.164Z,10.93
2023-03-12T15:21:37.154Z,11.82
2023-03-12T15:24:31.164Z,11.52
2023-03-12T15:27:35.176Z,11.52
2023-03-12T15:30:15.172Z,12.80
2023-03-12T15:33:24.170Z,11.95
2023-03-12T15:36:21.170Z,21.17
2023-03-12T15:39:37.264Z,16.55
2023-03-12T15:42:24.393Z,15.90
2023-03-12T15:45:11.164Z,17.30
2023-03-12T15:47:47.268Z,13.48
2023-03-12T15:50:43.225Z,24.13
2023-03-12T15:53:19.274Z,13.32
2023-03-12T15:56:27.188Z,12.00
2023-03-12T15:59:38.171Z,11.32
2023-03-12T16:02:49.196Z,38.55
2023-03-12T16:05:39.194Z,65.65
2023-03-12T16:08:21.281Z,47.90
2023-03-12T16:11:08.190Z,29.08
2023-03-12T16:13:42.058Z,53.33
2023-03-12T16:16:29.267Z,50.13
2023-03-12T16:19:02.384Z,41.05
2023-03-12T16:21:50.180Z,38.95
2023-03-12T16:24:30.210Z,35.28
2023-03-12T16:27:32.926Z,32.97
2023-03-12T16:30:42.188Z,20.92
2023-03-12T16:33:20.282Z,16.10
2023-03-12T16:36:07.216Z,18.48
2023-03-12T16:38:47.190Z,28.25
2023-03-12T16:41:42.195Z,24.92
2023-03-12T16:44:36.187Z,40.03
2023-03-12T16:47:23.186Z,46.15
2023-03-12T16:50:03.203Z,39.08
2023-03-12T16:52:53.183Z,36.05
2023-03-12T16:55:29.315Z,21.80
2023-03-12T16:58:20.187Z,18.98
2023-03-12T17:01:01.232Z,15.32
2023-03-12T17:03:57.653Z,21.27
2023-03-12T17:06:46.188Z,19.42
2023-03-12T17:09:19.302Z,23.27
2023-03-12T17:12:06.198Z,23.48
2023-03-12T17:14:47.207Z,24.63
2023-03-12T17:17:34.289Z,24.27
2023-03-12T17:20:10.178Z,19.13
2023-03-12T17:22:57.192Z,23.17
2023-03-12T17:25:34.305Z,27.65
2023-03-12T17:28:22.228Z,18.95
2023-03-12T17:30:55.608Z,26.15
2023-03-12T17:33:42.212Z,22.40
2023-03-12T17:36:16.317Z,24.60
2023-03-12T17:39:03.195Z,29.63
2023-03-12T17:41:39.255Z,48.90
2023-03-12T17:44:26.203Z,47.03
2023-03-12T17:47:06.272Z,49.50
2023-03-12T17:49:53.205Z,43.70
2023-03-12T17:52:33.199Z,40.33
2023-03-12T17:55:27.235Z,34.85
2023-03-12T17:58:14.200Z,45.63
2023-03-12T18:00:47.339Z,33.13
2023-03-12T18:03:34.323Z,31.25
2023-03-12T18:06:15.232Z,34.53
2023-03-12T18:09:09.270Z,31.30
2023-03-12T18:11:56.301Z,28.65
2023-03-12T18:14:29.335Z,34.70
2023-03-12T18:17:16.243Z,39.92
2023-03-12T18:19:49.470Z,34.40
2023-03-12T18:22:36.247Z,24.65
2023-03-12T18:25:09.408Z,20.67
2023-03-12T18:27:56.748Z,24.85
2023-03-12T18:30:37.232Z,19.00
2023-03-12T18:33:24.239Z,22.95
2023-03-12T18:36:04.281Z,33.25
2023-03-12T18:38:58.244Z,21.77
2023-03-12T18:41:45.223Z,26.48
2023-03-12T18:44:18.322Z,18.63
2023-03-12T18:47:05.368Z,21.67
2023-03-12T18:49:38.362Z,23.73
2023-03-12T18:52:25.280Z,21.05
2023-03-12T18:54:58.412Z,22.20
2023-03-12T18:57:45.233Z,32.15
2023-03-12T19:00:21.814Z,25.60
2023-03-12T19:03:08.341Z,23.95
2023-03-12T19:05:48.257Z,26.55
2023-03-12T19:08:36.257Z,24.33
2023-03-12T19:11:21.255Z,25.58
2023-03-12T19:14:15.249Z,29.15
2023-03-12T19:17:02.394Z,33.88
2023-03-12T19:19:42.263Z,37.47
2023-03-12T19:22:32.240Z,32.40
2023-03-12T19:25:12.280Z,33.20
2023-03-12T19:27:59.312Z,32.50
2023-03-12T19:30:40.253Z,35.45
2023-03-12T19:33:35.315Z,32.97
2023-03-12T19:36:29.283Z,36.80
2023-03-12T19:39:21.547Z,32.38
2023-03-12T19:42:05.248Z,37.55
2023-03-12T19:44:52.280Z,38.63
2023-03-12T19:47:26.824Z,27.08
2023-03-12T19:50:15.244Z,29.27
2023-03-12T19:52:48.453Z,27.45
2023-03-12T19:55:35.365Z,23.88
2023-03-12T19:58:16.317Z,27.92
2023-03-12T20:01:14.261Z,40.47
2023-03-12T20:04:01.284Z,35.15
2023-03-12T20:06:34.374Z,50.20
2023-03-12T20:09:21.289Z,48.90
2023-03-12T20:12:01.259Z,46.17
2023-03-12T20:14:48.289Z,51.30
2023-03-12T20:17:22.391Z,53.38
2023-03-12T20:20:09.260Z,55.55
2023-03-12T20:22:50.263Z,67.55
2023-03-12T20:25:44.250Z,56.05
2023-03-12T20:28:31.291Z,33.83
2023-03-12T20:31:04.373Z,33.90
2023-03-12T20:33:51.312Z,42.78
2023-03-12T20:36:24.420Z,41.97
2023-03-12T20:39:11.283Z,38.08
2023-03-12T20:41:51.290Z,38.88
2023-03-12T20:44:38.303Z,23.33
2023-03-12T20:47:11.402Z,25.35
2023-03-12T20:50:05.333Z,27.75
2023-03-12T20:52:59.302Z,27.48
2023-03-12T20:55:53.327Z,28.60
2023-03-12T20:58:47.282Z,25.55
2023-03-12T21:01:41.345Z,25.55
2023-03-12T21:04:28.302Z,30.98
2023-03-12T21:07:01.399Z,25.63
2023-03-12T21:09:48.358Z,26.25
2023-03-12T21:12:21.379Z,32.03
2023-03-12T21:15:12.322Z,32.80
2023-03-12T21:17:46.465Z,30.23
2023-03-12T21:20:33.291Z,32.50
2023-03-12T21:23:13.369Z,29.15
2023-03-12T21:26:15.347Z,31.15
2023-03-12T21:29:02.321Z,41.00
2023-03-12T21:31:35.892Z,37.83
2023-03-12T21:34:22.269Z,45.08
2023-03-12T21:36:55.483Z,43.20
2023-03-12T21:39:42.291Z,59.80
2023-03-12T21:42:15.391Z,57.42
2023-03-12T21:45:02.316Z,59.58
2023-03-12T21:47:35.460Z,57.28
2023-03-12T21:50:29.358Z,51.35
2023-03-12T21:53:24.230Z,47.53
2023-03-12T21:56:20.347Z,50.08
2023-03-12T21:59:14.328Z,47.45
2023-03-12T22:02:08.305Z,43.10
2023-03-12T22:04:58.308Z,35.40
2023-03-12T22:07:38.322Z,34.03
2023-03-12T22:10:25.305Z,39.20
2023-03-12T22:13:05.299Z,44.50
2023-03-12T22:16:08.527Z,60.03
2023-03-12T22:18:55.343Z,68.00
2023-03-12T22:21:29.459Z,55.25
2023-03-12T22:24:17.364Z,58.67
2023-03-12T22:26:59.436Z,73.43
2023-03-12T22:29:53.318Z,52.28
2023-03-12T22:32:40.384Z,45.92
2023-03-12T22:35:14.451Z,57.30
2023-03-12T22:38:01.301Z,63.25
2023-03-12T22:40:34.615Z,49.83
2023-03-12T22:43:22.455Z,55.53
2023-03-12T22:46:00.392Z,63.83
2023-03-12T22:48:47.326Z,66.18
2023-03-12T22:51:28.322Z,58.42
2023-03-12T22:54:15.345Z,67.43
2023-03-12T22:56:48.409Z,79.15
2023-03-12T22:59:35.320Z,54.78
2023-03-12T23:02:08.671Z,48.75
2023-03-12T23:04:55.417Z,53.38
2023-03-12T23:07:29.436Z,57.22
2023-03-12T23:10:34.325Z,73.43
2023-03-12T23:13:09.387Z,64.65
2023-03-12T23:15:56.326Z,67.60
2023-03-12T23:18:29.412Z,51.25
2023-03-12T23:21:19.328Z,76.75
2023-03-12T23:24:00.312Z,47.55
2023-03-12T23:26:48.398Z,57.78
2023-03-12T23:29:21.512Z,52.42
2023-03-12T23:32:08.338Z,47.40
2023-03-12T23:34:41.433Z,38.28
2023-03-12T23:37:28.326Z,60.35
2023-03-12T23:40:08.334Z,35.78
2023-03-12T23:42:55.359Z,29.05
2023-03-12T23:45:35.426Z,30.45
2023-03-12T23:48:29.334Z,32.47
2023-03-12T23:51:27.348Z,25.42
2023-03-12T23:54:14.394Z,28.15
2023-03-12T23:56:48.527Z,31.02
2023-03-12T23:59:35.360Z,36.22
